createdAt,value
2017-07-23T00:01:00.173Z,90.6
2017-07-23T00:02:01.910Z,90.3
2017-07-23T00:03:03.648Z,90.3
2017-07-23T00:04:05.310Z,90.2
2017-07-23T00:05:07.018Z,89.9
2017-07-23T00:06:23.531Z,90.2
2017-07-23T00:07:25.330Z,89.7
2017-07-23T00:08:26.988Z,89.9
2017-07-23T00:09:28.723Z,89.9
2017-07-23T00:10:30.460Z,89.7
2017-07-23T00:11:32.178Z,89.7
2017-07-23T00:12:33.890Z,89.8
2017-07-23T00:13:35.655Z,89.9
2017-07-23T00:14:37.363Z,89.9
2017-07-23T00:15:39.050Z,89.9
2017-07-23T00:16:40.777Z,89.9
2017-07-23T00:17:42.609Z,89.7
2017-07-23T00:18:44.325Z,89.7
2017-07-23T00:19:47.129Z,89.8
2017-07-23T00:20:48.781Z,89.8
2017-07-23T00:21:50.517Z,90.0
2017-07-23T00:22:52.244Z,89.2
2017-07-23T00:23:54.008Z,89.4
2017-07-23T00:24:55.734Z,89.4
2017-07-23T00:25:59.492Z,89.2
2017-07-23T00:27:01.237Z,89.1
2017-07-23T00:28:03.906Z,89.0
2017-07-23T00:29:05.631Z,89.4
2017-07-23T00:30:07.371Z,89.2
2017-07-23T00:31:09.094Z,88.9
2017-07-23T00:32:10.844Z,89.4
2017-07-23T00:33:12.575Z,89.6
2017-07-23T00:34:14.340Z,89.8
2017-07-23T00:35:15.998Z,90.3
2017-07-23T00:36:17.728Z,90.3
2017-07-23T00:37:19.473Z,90.0
2017-07-23T00:38:21.275Z,90.1
2017-07-23T00:39:22.997Z,90.4
2017-07-23T00:40:24.759Z,90.4
2017-07-23T00:41:26.498Z,90.5
2017-07-23T00:42:28.320Z,90.1
2017-07-23T00:43:30.057Z,90.7
2017-07-23T00:44:31.820Z,90.4
2017-07-23T00:45:33.476Z,90.7
2017-07-23T00:46:36.243Z,90.5
2017-07-23T00:47:37.963Z,90.3
2017-07-23T00:48:39.694Z,89.6
2017-07-23T00:49:41.406Z,90.1
2017-07-23T00:50:43.217Z,90.3
2017-07-23T00:51:44.952Z,90.3
2017-07-23T00:52:46.727Z,90.4
2017-07-23T00:53:48.461Z,90.5
2017-07-23T00:54:50.231Z,90.8
2017-07-23T00:55:51.957Z,90.5
2017-07-23T00:56:53.710Z,90.9
2017-07-23T00:57:55.371Z,90.7
2017-07-23T00:58:57.122Z,90.8
2017-07-23T00:59:58.842Z,91.2
2017-07-23T01:01:00.597Z,90.8
2017-07-23T01:02:02.312Z,90.7
2017-07-23T01:03:04.083Z,90.4
2017-07-23T01:04:05.794Z,90.3
2017-07-23T01:05:07.605Z,90.2
2017-07-23T01:06:09.322Z,90.3
2017-07-23T01:07:11.099Z,91.0
2017-07-23T01:08:12.831Z,90.9
2017-07-23T01:09:14.572Z,91.0
2017-07-23T01:10:16.224Z,90.8
2017-07-23T01:11:17.988Z,90.8
2017-07-23T01:12:19.710Z,90.3
2017-07-23T01:13:21.468Z,90.2
2017-07-23T01:14:23.168Z,90.5
2017-07-23T01:15:25.949Z,90.0
2017-07-23T01:16:27.672Z,90.2
2017-07-23T01:17:29.486Z,90.7
2017-07-23T01:18:31.209Z,90.4
2017-07-23T01:19:32.976Z,89.9
2017-07-23T01:20:34.690Z,90.6
2017-07-23T01:21:36.437Z,90.7
2017-07-23T01:22:38.091Z,90.7
2017-07-23T01:23:39.798Z,90.5
2017-07-23T01:24:41.566Z,90.8
2017-07-23T01:25:43.305Z,90.9
2017-07-23T01:26:45.043Z,90.5
2017-07-23T01:27:46.813Z,90.4
2017-07-23T01:28:48.649Z,90.5
2017-07-23T01:29:50.378Z,90.8
2017-07-23T01:30:52.163Z,90.9
2017-07-23T01:31:53.879Z,90.9
2017-07-23T01:32:55.591Z,91.0
2017-07-23T01:33:57.308Z,90.7
2017-07-23T01:34:59.137Z,90.8
2017-07-23T01:36:00.857Z,90.7
2017-07-23T01:37:02.623Z,91.0
2017-07-23T01:38:04.334Z,91.0
2017-07-23T01:39:06.117Z,90.8
2017-07-23T01:40:07.859Z,90.3
2017-07-23T01:41:09.626Z,90.4
2017-07-23T01:42:11.354Z,90.7
2017-07-23T01:43:13.091Z,89.9
2017-07-23T01:44:14.810Z,90.2
2017-07-23T01:45:16.628Z,89.8
2017-07-23T01:46:18.334Z,89.5
2017-07-23T01:47:20.054Z,89.6
2017-07-23T01:48:21.766Z,89.6
2017-07-23T01:49:24.482Z,89.9
2017-07-23T01:50:26.147Z,90.1
2017-07-23T01:51:27.905Z,90.4
2017-07-23T01:52:29.642Z,90.4
2017-07-23T01:53:31.409Z,90.3
2017-07-23T01:54:33.139Z,90.7
2017-07-23T01:55:34.904Z,89.9
2017-07-23T01:56:36.627Z,89.9
2017-07-23T01:57:38.340Z,89.9
2017-07-23T01:58:40.046Z,90.1
2017-07-23T01:59:41.814Z,89.8
2017-07-23T02:00:43.540Z,89.4
2017-07-23T02:01:45.350Z,89.2
2017-07-23T02:02:47.000Z,89.2
2017-07-23T02:03:48.749Z,89.7
2017-07-23T02:04:50.401Z,89.6
2017-07-23T02:05:52.133Z,89.8
2017-07-23T02:06:53.864Z,89.7
2017-07-23T02:07:55.625Z,89.6
2017-07-23T02:08:57.342Z,90.3
2017-07-23T02:09:59.064Z,90.2
2017-07-23T02:11:00.786Z,90.2
2017-07-23T02:12:02.457Z,90.3
2017-07-23T02:13:04.178Z,90.2
2017-07-23T02:14:05.931Z,90.1
2017-07-23T02:15:07.635Z,90.1
2017-07-23T02:16:09.414Z,90.1
2017-07-23T02:17:11.135Z,90.3
2017-07-23T02:18:12.907Z,90.3
2017-07-23T02:19:14.558Z,90.5
2017-07-23T02:20:16.319Z,90.7
2017-07-23T02:21:18.055Z,90.7
2017-07-23T02:22:19.795Z,90.3
2017-07-23T02:23:21.521Z,90.0
2017-07-23T02:24:23.237Z,90.6
2017-07-23T02:25:24.950Z,90.1
2017-07-23T02:26:26.808Z,90.4
2017-07-23T02:27:28.525Z,90.1
2017-07-23T02:28:30.249Z,90.7
2017-07-23T02:29:32.032Z,90.4
2017-07-23T02:30:33.802Z,90.2
2017-07-23T02:31:35.534Z,90.6
2017-07-23T02:32:37.260Z,90.7
2017-07-23T02:33:38.981Z,90.9
2017-07-23T02:34:40.720Z,90.5
2017-07-23T02:35:42.448Z,90.8
2017-07-23T02:36:44.257Z,90.8
2017-07-23T02:37:45.974Z,90.8
2017-07-23T02:38:47.754Z,90.9
2017-07-23T02:39:49.500Z,90.7
2017-07-23T02:40:51.240Z,91.0
2017-07-23T02:41:52.988Z,90.7
2017-07-23T02:42:54.743Z,91.4
2017-07-23T02:43:56.457Z,91.1
2017-07-23T02:44:58.243Z,91.0
2017-07-23T02:45:59.958Z,91.5
2017-07-23T02:47:01.665Z,91.6
2017-07-23T02:48:03.385Z,91.3
2017-07-23T02:49:05.129Z,91.6
2017-07-23T02:50:06.855Z,91.4
2017-07-23T02:51:08.665Z,91.3
2017-07-23T02:52:10.318Z,91.6
2017-07-23T02:53:12.147Z,91.3
2017-07-23T02:54:13.864Z,91.3
2017-07-23T02:55:15.612Z,91.7
2017-07-23T02:56:17.333Z,91.7
2017-07-23T02:57:19.119Z,91.7
2017-07-23T02:58:20.843Z,91.5
2017-07-23T02:59:23.629Z,91.6
2017-07-23T03:00:25.353Z,91.2
2017-07-23T03:01:27.126Z,91.8
2017-07-23T03:02:28.838Z,91.8
2017-07-23T03:03:30.631Z,91.5
2017-07-23T03:04:32.278Z,91.5
2017-07-23T03:05:34.011Z,92.0
2017-07-23T03:06:35.723Z,91.9
2017-07-23T03:07:37.505Z,92.0
2017-07-23T03:08:39.226Z,92.4
2017-07-23T03:09:40.975Z,92.4
2017-07-23T03:10:42.696Z,92.1
2017-07-23T03:11:44.490Z,92.2
2017-07-23T03:12:46.204Z,92.4
2017-07-23T03:13:47.927Z,92.1
2017-07-23T03:14:49.641Z,92.5
2017-07-23T03:15:51.386Z,92.5
2017-07-23T03:16:53.045Z,92.5
2017-07-23T03:17:54.884Z,92.2
2017-07-23T03:18:56.616Z,92.6
2017-07-23T03:19:58.376Z,91.8
2017-07-23T03:21:00.095Z,91.9
2017-07-23T03:22:01.807Z,92.1
2017-07-23T03:23:03.523Z,92.0
2017-07-23T03:24:05.195Z,92.2
2017-07-23T03:25:06.909Z,92.0
2017-07-23T03:26:08.699Z,92.6
2017-07-23T03:27:10.412Z,92.1
2017-07-23T03:28:12.188Z,92.5
2017-07-23T03:29:13.839Z,92.5
2017-07-23T03:30:16.610Z,92.5
2017-07-23T03:31:18.264Z,92.4
2017-07-23T03:32:19.995Z,92.1
2017-07-23T03:33:21.719Z,92.6
2017-07-23T03:34:23.489Z,92.4
2017-07-23T03:35:25.205Z,92.2
2017-07-23T03:36:26.944Z,92.4
2017-07-23T03:37:28.664Z,92.4
2017-07-23T03:38:30.382Z,92.4
2017-07-23T03:39:32.160Z,92.0
2017-07-23T03:40:33.946Z,92.5
2017-07-23T03:41:35.659Z,92.6
2017-07-23T03:42:37.433Z,92.7
2017-07-23T03:43:39.084Z,92.5
2017-07-23T03:44:40.825Z,92.6
2017-07-23T03:45:42.544Z,92.5
2017-07-23T03:46:44.319Z,92.5
2017-07-23T03:47:46.038Z,92.0
2017-07-23T03:48:48.756Z,92.4
2017-07-23T03:49:50.466Z,91.9
2017-07-23T03:50:52.164Z,92.0
2017-07-23T03:51:53.883Z,92.0
2017-07-23T03:52:55.624Z,92.1
2017-07-23T03:53:57.343Z,92.1
2017-07-23T03:54:59.117Z,92.1
2017-07-23T03:56:00.845Z,92.2
2017-07-23T03:57:02.616Z,92.3
2017-07-23T03:58:04.268Z,92.4
2017-07-23T03:59:06.635Z,92.3
2017-07-23T04:00:08.406Z,92.1
2017-07-23T04:01:10.176Z,92.5
2017-07-23T04:02:11.997Z,92.3
2017-07-23T04:03:13.712Z,92.1
2017-07-23T04:04:15.500Z,92.4
2017-07-23T04:05:17.210Z,92.6
2017-07-23T04:06:19.955Z,91.8
2017-07-23T04:07:21.612Z,91.8
2017-07-23T04:08:23.373Z,91.9
2017-07-23T04:09:25.122Z,92.2
2017-07-23T04:10:26.909Z,92.2
2017-07-23T04:11:28.645Z,92.0
2017-07-23T04:12:30.293Z,91.9
2017-07-23T04:13:32.022Z,92.0
2017-07-23T04:14:33.731Z,91.8
2017-07-23T04:15:35.468Z,92.0
2017-07-23T04:16:37.185Z,91.7
2017-07-23T04:17:38.907Z,91.3
2017-07-23T04:18:40.706Z,90.9
2017-07-23T04:19:43.207Z,90.8
2017-07-23T04:20:45.007Z,90.7
2017-07-23T04:21:46.726Z,90.8
2017-07-23T04:22:48.492Z,90.7
2017-07-23T04:23:50.248Z,91.3
2017-07-23T04:24:51.993Z,91.6
2017-07-23T04:25:53.709Z,91.2
2017-07-23T04:26:55.471Z,91.5
2017-07-23T04:27:57.190Z,91.6
2017-07-23T04:28:58.915Z,91.4
2017-07-23T04:30:00.633Z,91.7
2017-07-23T04:31:02.507Z,91.7
2017-07-23T04:32:04.236Z,91.5
2017-07-23T04:33:06.096Z,91.6
2017-07-23T04:34:07.843Z,91.7
2017-07-23T04:35:09.698Z,91.4
2017-07-23T04:36:11.449Z,91.2
2017-07-23T04:37:13.304Z,91.5
2017-07-23T04:38:15.038Z,91.4
2017-07-23T04:39:16.916Z,91.4
2017-07-23T04:40:18.594Z,91.8
2017-07-23T04:41:20.376Z,91.2
2017-07-23T04:42:22.120Z,92.2
2017-07-23T04:43:23.884Z,91.7
2017-07-23T04:44:25.726Z,91.5
2017-07-23T04:45:27.636Z,91.4
2017-07-23T04:46:29.367Z,91.2
2017-07-23T04:47:31.095Z,92.2
2017-07-23T04:48:32.775Z,92.0
2017-07-23T04:49:34.576Z,91.7
2017-07-23T04:50:36.395Z,92.1
2017-07-23T04:51:38.199Z,92.4
2017-07-23T04:52:39.961Z,91.9
2017-07-23T04:53:41.701Z,91.9
2017-07-23T04:54:43.451Z,92.1
2017-07-23T04:55:45.304Z,92.0
2017-07-23T04:56:47.024Z,92.0
2017-07-23T04:57:49.899Z,92.0
2017-07-23T04:58:51.666Z,92.0
2017-07-23T04:59:53.497Z,91.2
2017-07-23T05:00:55.231Z,91.6
2017-07-23T05:01:57.072Z,91.8
2017-07-23T05:02:58.840Z,92.2
2017-07-23T05:04:01.734Z,92.0
2017-07-23T05:05:03.520Z,92.6
2017-07-23T05:06:05.308Z,92.4
2017-07-23T05:07:07.187Z,92.0
2017-07-23T05:08:09.010Z,92.3
2017-07-23T05:09:10.884Z,91.8
2017-07-23T05:10:12.737Z,92.0
2017-07-23T05:11:14.529Z,91.9
2017-07-23T05:12:16.334Z,91.5
2017-07-23T05:13:18.053Z,91.5
2017-07-23T05:14:35.883Z,91.8
2017-07-23T05:15:37.910Z,91.7
2017-07-23T05:16:44.422Z,91.8
2017-07-23T05:17:46.336Z,91.6
2017-07-23T05:19:02.869Z,91.6
2017-07-23T05:20:04.741Z,91.8
2017-07-23T05:42:28.392Z,87.3
2017-07-23T05:43:30.179Z,87.6
2017-07-23T05:44:31.913Z,87.5
2017-07-23T05:45:33.723Z,87.8
2017-07-23T05:46:35.510Z,88.0
2017-07-23T05:47:37.274Z,88.0
2017-07-23T05:48:39.034Z,87.8
2017-07-23T05:49:40.928Z,87.9
2017-07-23T05:50:42.686Z,87.9
2017-07-23T05:51:44.515Z,87.3
2017-07-23T05:52:46.259Z,87.0
2017-07-23T05:53:49.092Z,87.4
2017-07-23T05:54:50.781Z,87.0
2017-07-23T05:55:52.595Z,86.7
2017-07-23T05:56:54.342Z,86.9
2017-07-23T05:57:56.245Z,87.0
2017-07-23T05:58:58.003Z,86.3
2017-07-23T06:00:00.822Z,86.3
2017-07-23T06:01:02.555Z,85.8
2017-07-23T06:02:04.298Z,86.2
2017-07-23T06:03:06.043Z,85.9
2017-07-23T06:04:07.840Z,85.8
2017-07-23T06:05:09.631Z,85.3
2017-07-23T06:06:11.387Z,85.4
2017-07-23T06:07:13.115Z,85.2
2017-07-23T06:08:15.873Z,85.3
2017-07-23T06:09:17.620Z,84.9
2017-07-23T06:10:19.394Z,84.4
2017-07-23T06:11:21.156Z,84.3
2017-07-23T06:12:22.922Z,84.1
2017-07-23T06:13:24.603Z,84.2
2017-07-23T06:14:27.414Z,83.6
2017-07-23T06:15:29.142Z,83.7
2017-07-23T06:16:32.965Z,83.3
2017-07-23T06:17:34.689Z,83.0
2017-07-23T06:18:36.395Z,83.1
2017-07-23T06:19:38.111Z,82.9
2017-07-23T06:20:39.975Z,83.0
2017-07-23T06:21:41.736Z,83.8
2017-07-23T06:22:43.552Z,84.1
2017-07-23T06:23:45.327Z,84.1
2017-07-23T06:24:47.137Z,84.1
2017-07-23T06:25:48.892Z,84.3
2017-07-23T06:26:50.579Z,84.2
2017-07-23T06:27:52.297Z,84.2
2017-07-23T06:28:54.167Z,84.4
2017-07-23T06:29:55.897Z,84.5
2017-07-23T06:30:57.624Z,85.0
2017-07-23T06:31:59.309Z,84.6
2017-07-23T06:33:01.136Z,85.0
2017-07-23T06:34:02.859Z,85.2
2017-07-23T06:35:04.629Z,84.9
2017-07-23T06:36:06.346Z,85.2
2017-07-23T06:37:08.078Z,84.9
2017-07-23T06:38:09.821Z,85.2
2017-07-23T06:39:11.490Z,84.9
2017-07-23T06:40:13.209Z,85.1
2017-07-23T06:41:15.019Z,84.2
2017-07-23T06:42:16.753Z,84.3
2017-07-23T06:43:18.541Z,84.4
2017-07-23T06:44:20.195Z,84.3
2017-07-23T06:45:21.943Z,84.9
2017-07-23T06:46:23.658Z,85.1
2017-07-23T06:47:25.430Z,85.0
2017-07-23T06:48:27.150Z,85.0
2017-07-23T06:49:28.942Z,84.2
2017-07-23T06:50:30.668Z,84.5
2017-07-23T06:51:32.357Z,84.3
2017-07-23T06:52:34.092Z,84.9
2017-07-23T06:53:36.868Z,85.1
2017-07-23T06:54:38.582Z,85.1
2017-07-23T06:55:40.343Z,84.9
2017-07-23T06:56:42.030Z,84.7
2017-07-23T06:57:43.845Z,84.1
2017-07-23T06:58:45.585Z,84.5
2017-07-23T06:59:48.366Z,84.3
2017-07-23T07:00:50.074Z,84.3
2017-07-23T07:01:51.805Z,84.1
2017-07-23T07:02:53.532Z,84.3
2017-07-23T07:03:55.561Z,84.2
2017-07-23T07:04:57.229Z,83.8
2017-07-23T07:05:59.052Z,83.2
2017-07-23T07:07:00.786Z,83.0
2017-07-23T07:08:03.570Z,82.5
2017-07-23T07:09:05.305Z,81.6
2017-07-23T07:10:07.065Z,81.3
2017-07-23T07:11:08.787Z,81.2
2017-07-23T07:12:10.575Z,80.8
2017-07-23T07:13:12.302Z,80.6
2017-07-23T07:14:14.026Z,80.4
2017-07-23T07:15:15.732Z,80.0
2017-07-23T07:16:17.562Z,79.8
2017-07-23T07:17:19.284Z,79.6
2017-07-23T07:18:21.062Z,78.6
2017-07-23T07:19:22.783Z,79.1
2017-07-23T07:20:24.488Z,78.6
2017-07-23T07:21:26.219Z,78.7
2017-07-23T07:22:28.047Z,78.2
2017-07-23T07:23:29.765Z,78.4
2017-07-23T07:24:31.547Z,78.2
2017-07-23T07:25:33.254Z,78.0
2017-07-23T07:26:35.045Z,78.1
2017-07-23T07:27:36.762Z,77.2
2017-07-23T07:28:38.529Z,77.4
2017-07-23T07:29:40.243Z,77.3
2017-07-23T07:30:42.024Z,76.8
2017-07-23T07:31:43.753Z,76.3
2017-07-23T07:32:45.538Z,76.5
2017-07-23T07:33:47.257Z,76.0
2017-07-23T07:34:49.016Z,75.4
2017-07-23T07:35:50.748Z,76.1
2017-07-23T07:36:52.523Z,75.6
2017-07-23T07:37:54.272Z,75.6
2017-07-23T07:38:56.022Z,75.0
2017-07-23T07:39:57.748Z,75.0
2017-07-23T07:40:59.535Z,75.1
2017-07-23T07:42:01.264Z,75.1
2017-07-23T07:43:04.802Z,75.1
2017-07-23T07:44:06.644Z,75.0
2017-07-23T07:45:08.297Z,75.6
2017-07-23T07:46:10.039Z,75.9
2017-07-23T07:47:11.763Z,75.8
2017-07-23T07:48:13.551Z,75.9
2017-07-23T07:49:15.279Z,76.2
2017-07-23T07:50:16.978Z,76.0
2017-07-23T07:51:18.703Z,75.7
2017-07-23T07:52:21.548Z,75.7
2017-07-23T07:53:23.269Z,75.6
2017-07-23T07:54:26.069Z,76.4
2017-07-23T07:55:27.723Z,76.3
2017-07-23T07:56:29.560Z,76.5
2017-07-23T07:57:31.277Z,76.2
2017-07-23T07:58:33.044Z,76.6
2017-07-23T07:59:34.777Z,76.6
2017-07-23T08:00:36.486Z,76.8
2017-07-23T08:01:38.209Z,76.6
2017-07-23T08:02:40.053Z,76.8
2017-07-23T08:03:41.780Z,77.4
2017-07-23T08:04:45.578Z,76.9
2017-07-23T08:05:47.250Z,76.9
2017-07-23T08:06:49.110Z,77.5
2017-07-23T08:07:50.865Z,77.8
2017-07-23T08:08:53.588Z,77.6
2017-07-23T08:09:55.317Z,77.5
2017-07-23T08:10:57.024Z,77.9
2017-07-23T08:11:58.750Z,78.3
2017-07-23T08:13:00.403Z,78.5
2017-07-23T08:14:02.132Z,78.3
2017-07-23T08:15:03.877Z,78.3
2017-07-23T08:16:05.594Z,78.8
2017-07-23T08:17:07.372Z,79.2
2017-07-23T08:18:09.052Z,79.1
2017-07-23T08:19:10.869Z,79.7
2017-07-23T08:20:12.594Z,79.2
2017-07-23T08:21:14.364Z,79.9
2017-07-23T08:22:16.106Z,79.9
2017-07-23T08:23:19.841Z,79.7
2017-07-23T08:24:21.569Z,79.6
2017-07-23T08:25:23.380Z,79.0
2017-07-23T08:26:25.099Z,79.1
2017-07-23T08:27:26.893Z,79.1
2017-07-23T08:28:28.602Z,79.6
2017-07-23T08:29:30.372Z,80.3
2017-07-23T08:30:32.024Z,79.8
2017-07-23T08:31:33.763Z,79.6
2017-07-23T08:32:35.513Z,79.7
2017-07-23T08:33:37.268Z,79.1
2017-07-23T08:34:39.038Z,79.2
2017-07-23T08:35:40.810Z,78.8
2017-07-23T08:36:42.550Z,78.6
2017-07-23T08:37:44.353Z,78.6
2017-07-23T08:38:46.088Z,78.0
2017-07-23T08:39:47.855Z,77.6
2017-07-23T08:40:49.509Z,77.9
2017-07-23T08:41:52.275Z,77.2
2017-07-23T08:42:53.993Z,77.6
2017-07-23T08:43:55.770Z,77.0
2017-07-23T08:44:57.492Z,76.7
2017-07-23T08:45:59.259Z,76.3
2017-07-23T08:47:01.095Z,76.4
2017-07-23T08:48:02.839Z,75.7
2017-07-23T08:49:04.562Z,75.1
2017-07-23T08:50:07.336Z,74.9
2017-07-23T08:51:09.062Z,75.0
2017-07-23T08:52:10.838Z,74.6
2017-07-23T08:53:12.566Z,74.6
2017-07-23T08:54:14.330Z,73.8
2017-07-23T08:55:16.088Z,73.5
2017-07-23T08:56:18.800Z,73.9
2017-07-23T08:57:20.526Z,73.2
2017-07-23T08:58:22.342Z,73.1
2017-07-23T08:59:24.065Z,73.5
2017-07-23T09:00:25.858Z,72.7
2017-07-23T09:01:27.538Z,72.9
2017-07-23T09:02:30.356Z,73.1
2017-07-23T09:03:32.092Z,73.2
2017-07-23T09:04:33.854Z,73.4
2017-07-23T09:05:35.571Z,73.4
2017-07-23T09:06:38.317Z,74.1
2017-07-23T09:07:40.065Z,73.1
2017-07-23T09:08:41.872Z,73.1
2017-07-23T09:09:43.606Z,73.6
2017-07-23T09:10:45.412Z,73.6
2017-07-23T09:11:47.115Z,73.4
2017-07-23T09:12:48.889Z,73.4
2017-07-23T09:13:50.624Z,72.7
2017-07-23T09:14:53.394Z,73.2
2017-07-23T09:15:55.150Z,73.4
2017-07-23T09:16:56.916Z,72.9
2017-07-23T09:17:58.643Z,72.7
2017-07-23T09:19:00.464Z,73.3
2017-07-23T09:20:02.196Z,73.3
2017-07-23T09:21:03.983Z,73.5
2017-07-23T09:22:05.640Z,73.7
2017-07-23T09:23:07.466Z,73.8
2017-07-23T09:24:09.193Z,74.4
2017-07-23T09:25:10.965Z,74.2
2017-07-23T09:26:12.736Z,73.8
2017-07-23T09:27:14.455Z,73.2
2017-07-23T09:28:16.224Z,73.0
2017-07-23T09:29:17.956Z,72.5
2017-07-23T09:30:19.682Z,71.8
2017-07-23T09:31:21.511Z,71.8
2017-07-23T09:32:23.180Z,71.6
2017-07-23T09:33:24.996Z,70.9
2017-07-23T09:34:26.726Z,70.1
2017-07-23T09:35:28.497Z,69.8
2017-07-23T09:36:30.248Z,70.1
2017-07-23T09:37:31.945Z,70.9
2017-07-23T09:38:33.667Z,70.8
2017-07-23T09:39:35.489Z,71.0
2017-07-23T09:40:37.208Z,71.4
2017-07-23T09:41:38.978Z,71.6
2017-07-23T09:42:40.684Z,72.2
2017-07-23T09:43:42.484Z,71.8
2017-07-23T09:44:44.198Z,71.7
2017-07-23T09:45:47.003Z,70.7
2017-07-23T09:46:48.731Z,70.8
2017-07-23T09:47:50.472Z,70.8
2017-07-23T09:48:52.198Z,70.8
2017-07-23T09:49:53.994Z,70.4
2017-07-23T09:50:55.790Z,70.5
2017-07-23T09:51:57.702Z,71.0
2017-07-23T09:52:59.465Z,70.4
2017-07-23T09:54:01.319Z,69.0
2017-07-23T09:55:03.045Z,68.4
2017-07-23T09:56:04.826Z,67.3
2017-07-23T09:57:06.531Z,66.6
2017-07-23T09:58:08.275Z,67.8
2017-07-23T09:59:09.998Z,68.6
2017-07-23T10:00:11.782Z,69.4
2017-07-23T10:01:13.465Z,69.3
2017-07-23T10:02:16.286Z,68.3
2017-07-23T10:03:18.019Z,68.1
2017-07-23T10:04:19.757Z,68.1
2017-07-23T10:05:21.484Z,68.2
2017-07-23T10:06:23.263Z,67.8
2017-07-23T10:07:25.000Z,68.2
2017-07-23T10:08:26.730Z,70.3
2017-07-23T10:09:28.490Z,70.0
2017-07-23T10:10:30.279Z,68.8
2017-07-23T10:11:32.007Z,67.9
2017-07-23T10:12:33.777Z,67.9
2017-07-23T10:13:35.433Z,67.2
2017-07-23T10:14:37.195Z,67.8
2017-07-23T10:15:38.909Z,68.0
2017-07-23T10:16:41.698Z,67.8
2017-07-23T10:17:43.411Z,67.2
2017-07-23T10:18:45.097Z,66.2
2017-07-23T10:19:46.822Z,65.9
2017-07-23T10:20:48.696Z,66.7
2017-07-23T10:21:50.444Z,67.8
2017-07-23T10:22:52.256Z,68.2
2017-07-23T10:23:53.915Z,67.7
2017-07-23T10:24:55.643Z,68.1
2017-07-23T10:25:57.369Z,68.1
2017-07-23T10:26:59.153Z,68.5
2017-07-23T10:28:00.886Z,68.2
2017-07-23T10:29:02.577Z,67.2
2017-07-23T10:30:04.314Z,67.5
2017-07-23T10:31:06.174Z,70.3
2017-07-23T10:32:07.883Z,69.8
2017-07-23T10:33:09.633Z,70.0
2017-07-23T10:34:11.324Z,70.0
2017-07-23T10:35:13.130Z,71.2
2017-07-23T10:36:14.785Z,71.2
2017-07-23T10:37:16.614Z,70.4
2017-07-23T10:38:18.343Z,70.6
2017-07-23T10:39:20.115Z,71.5
2017-07-23T10:40:21.829Z,71.6
2017-07-23T10:41:23.616Z,72.0
2017-07-23T10:42:25.333Z,72.9
2017-07-23T10:43:27.108Z,72.2
2017-07-23T10:44:28.896Z,71.5
2017-07-23T10:45:30.712Z,70.1
2017-07-23T10:46:32.425Z,69.8
2017-07-23T10:47:34.201Z,70.7
2017-07-23T10:48:35.999Z,70.7
2017-07-23T10:49:38.753Z,70.2
2017-07-23T10:50:40.466Z,70.0
2017-07-23T10:51:42.214Z,69.2
2017-07-23T10:52:43.986Z,70.0
2017-07-23T10:53:45.696Z,68.7
2017-07-23T10:54:47.437Z,68.7
2017-07-23T10:55:49.167Z,68.8
2017-07-23T10:56:50.969Z,68.2
2017-07-23T10:57:52.696Z,68.8
2017-07-23T10:58:54.463Z,68.0
2017-07-23T10:59:56.229Z,68.5
2017-07-23T11:00:58.087Z,69.8
2017-07-23T11:01:59.830Z,69.8
2017-07-23T11:03:01.632Z,70.2
2017-07-23T11:04:03.353Z,70.2
2017-07-23T11:05:05.014Z,70.9
2017-07-23T11:06:06.741Z,70.7
2017-07-23T11:07:08.590Z,70.1
2017-07-23T11:08:10.324Z,70.1
2017-07-23T11:09:12.073Z,70.3
2017-07-23T11:10:13.739Z,70.5
2017-07-23T11:11:15.548Z,70.2
2017-07-23T11:12:17.276Z,69.4
2017-07-23T11:13:19.024Z,68.6
2017-07-23T11:14:20.749Z,68.3
2017-07-23T11:15:22.576Z,68.3
2017-07-23T11:16:24.298Z,67.7
2017-07-23T11:17:26.117Z,67.5
2017-07-23T11:18:27.848Z,67.3
2017-07-23T11:19:29.660Z,66.9
2017-07-23T11:20:31.326Z,66.7
2017-07-23T11:21:33.108Z,66.6
2017-07-23T11:22:34.879Z,66.8
2017-07-23T11:23:36.736Z,67.3
2017-07-23T11:24:38.464Z,66.6
2017-07-23T11:25:40.140Z,67.7
2017-07-23T11:26:41.867Z,67.6
2017-07-23T11:27:43.736Z,66.7
2017-07-23T11:28:45.485Z,66.4
2017-07-23T11:29:47.299Z,65.4
2017-07-23T11:30:49.111Z,65.0
2017-07-23T11:31:51.033Z,64.4
2017-07-23T11:32:52.782Z,64.7
2017-07-23T11:33:54.560Z,63.5
2017-07-23T11:34:56.458Z,63.3
2017-07-23T11:35:58.335Z,64.0
2017-07-23T11:37:00.144Z,63.3
2017-07-23T11:38:02.913Z,62.9
2017-07-23T11:39:04.650Z,62.6
2017-07-23T11:40:06.512Z,62.4
2017-07-23T11:41:08.973Z,62.7
2017-07-23T11:42:10.837Z,61.7
2017-07-23T11:43:13.465Z,61.7
2017-07-23T11:44:15.204Z,62.2
2017-07-23T11:45:17.048Z,62.4
2017-07-23T11:46:19.796Z,62.4
2017-07-23T11:47:21.557Z,62.3
2017-07-23T11:48:23.481Z,61.8
2017-07-23T11:49:25.207Z,61.3
2017-07-23T11:50:27.045Z,61.0
2017-07-23T11:51:28.827Z,60.7
2017-07-23T11:52:31.639Z,60.0
2017-07-23T11:53:33.373Z,60.0
2017-07-23T11:54:35.145Z,60.2
2017-07-23T11:55:36.890Z,60.3
2017-07-23T11:56:38.587Z,59.5
2017-07-23T11:57:40.313Z,59.2
2017-07-23T11:59:56.060Z,59.2
2017-07-23T12:00:58.827Z,58.3
2017-07-23T12:02:00.553Z,58.5
2017-07-23T12:03:02.320Z,58.9
2017-07-23T12:04:04.042Z,58.7
2017-07-23T12:05:06.828Z,59.0
2017-07-23T12:06:08.543Z,59.1
2017-07-23T12:07:10.373Z,58.6
2017-07-23T12:08:12.111Z,58.8
2017-07-23T12:09:13.838Z,58.4
2017-07-23T12:10:15.569Z,57.9
2017-07-23T12:11:17.327Z,57.4
2017-07-23T12:12:18.990Z,58.3
2017-07-23T12:13:20.819Z,58.1
2017-07-23T12:14:22.544Z,59.3
2017-07-23T12:15:24.333Z,60.5
2017-07-23T12:16:26.015Z,61.4
2017-07-23T12:17:27.745Z,60.1
2017-07-23T12:18:29.456Z,58.3
2017-07-23T12:19:31.212Z,58.1
2017-07-23T12:20:32.932Z,58.7
2017-07-23T12:21:34.714Z,59.7
2017-07-23T12:22:36.516Z,59.4
2017-07-23T12:23:38.295Z,60.8
2017-07-23T12:24:40.025Z,60.2
2017-07-23T12:25:41.789Z,58.7
2017-07-23T12:26:43.518Z,59.0
2017-07-23T12:27:45.254Z,59.0
2017-07-23T12:28:47.063Z,59.5
2017-07-23T12:29:48.893Z,59.9
2017-07-23T12:30:50.636Z,59.7
2017-07-23T12:31:52.377Z,60.3
2017-07-23T12:32:54.034Z,62.2
2017-07-23T12:33:55.932Z,62.8
2017-07-23T12:34:57.662Z,62.6
2017-07-23T12:35:59.478Z,63.0
2017-07-23T12:37:01.195Z,63.0
2017-07-23T12:38:02.961Z,61.3
2017-07-23T12:39:04.693Z,61.4
2017-07-23T12:40:07.496Z,60.4
2017-07-23T12:41:09.221Z,60.3
2017-07-23T12:42:10.991Z,59.6
2017-07-23T12:43:12.640Z,61.3
2017-07-23T12:44:14.374Z,60.1
2017-07-23T12:45:16.093Z,60.7
2017-07-23T12:46:17.960Z,60.5
2017-07-23T12:47:19.692Z,60.9
2017-07-23T12:48:21.358Z,60.5
2017-07-23T12:49:23.078Z,58.6
2017-07-23T12:50:24.868Z,60.1
2017-07-23T12:51:26.614Z,58.7
2017-07-23T12:52:28.365Z,59.3
2017-07-23T12:53:30.068Z,59.8
2017-07-23T12:54:31.812Z,58.9
2017-07-23T12:55:33.463Z,58.9
2017-07-23T12:56:35.238Z,59.7
2017-07-23T12:57:36.990Z,59.5
2017-07-23T12:58:38.749Z,62.7
2017-07-23T12:59:40.489Z,62.2
2017-07-23T13:00:42.170Z,63.1
2017-07-23T13:01:43.885Z,62.3
2017-07-23T13:02:45.632Z,61.4
2017-07-23T13:03:47.377Z,61.4
2017-07-23T13:04:49.146Z,60.5
2017-07-23T13:05:50.869Z,60.4
2017-07-23T13:06:52.625Z,60.3
2017-07-23T13:07:54.282Z,59.4
2017-07-23T13:08:56.141Z,59.2
2017-07-23T13:09:57.863Z,58.5
2017-07-23T13:10:59.667Z,58.4
2017-07-23T13:12:01.406Z,57.2
2017-07-23T13:13:03.210Z,57.1
2017-07-23T13:14:04.969Z,57.6
2017-07-23T13:15:06.706Z,56.9
2017-07-23T13:16:08.425Z,57.4
2017-07-23T13:17:10.221Z,58.0
2017-07-23T13:18:11.976Z,58.3
2017-07-23T13:19:13.799Z,60.5
2017-07-23T13:20:15.515Z,58.7
2017-07-23T13:21:17.232Z,59.0
2017-07-23T13:22:18.982Z,60.3
2017-07-23T13:23:20.797Z,61.7
2017-07-23T13:24:22.527Z,60.7
2017-07-23T13:25:25.315Z,59.2
2017-07-23T13:26:26.976Z,58.9
2017-07-23T13:27:28.801Z,57.9
2017-07-23T13:28:30.540Z,58.0
2017-07-23T13:29:34.003Z,59.5
2017-07-23T13:30:35.805Z,58.5
2017-07-23T13:31:37.528Z,57.6
2017-07-23T13:32:39.251Z,56.5
2017-07-23T13:33:41.245Z,56.2
2017-07-23T13:34:42.975Z,57.0
2017-07-23T13:35:44.799Z,56.8
2017-07-23T13:36:46.452Z,56.8
2017-07-23T13:37:48.222Z,57.2
2017-07-23T13:38:49.880Z,56.7
2017-07-23T13:39:51.682Z,57.0
2017-07-23T13:40:53.405Z,58.8
2017-07-23T13:41:55.174Z,59.7
2017-07-23T13:42:56.892Z,61.1
2017-07-23T13:43:58.619Z,58.6
2017-07-23T13:45:00.341Z,58.5
2017-07-23T13:46:02.200Z,58.2
2017-07-23T13:47:04.082Z,58.7
2017-07-23T13:48:05.866Z,58.5
2017-07-23T13:49:07.589Z,58.5
2017-07-23T13:50:09.361Z,59.7
2017-07-23T13:51:11.081Z,58.9
2017-07-23T13:52:12.795Z,59.2
2017-07-23T13:53:14.533Z,58.5
2017-07-23T13:54:16.346Z,58.3
2017-07-23T13:55:18.108Z,57.9
2017-07-23T13:56:19.867Z,58.7
2017-07-23T13:57:21.599Z,58.5
2017-07-23T13:58:23.341Z,58.6
2017-07-23T13:59:25.076Z,58.9
2017-07-23T14:00:26.836Z,58.7
2017-07-23T14:01:28.560Z,58.2
2017-07-23T14:02:30.353Z,57.6
2017-07-23T14:03:34.101Z,57.8
2017-07-23T14:04:37.935Z,57.2
2017-07-23T14:05:39.693Z,57.4
2017-07-23T14:06:41.416Z,59.0